Aviation Digital Data Service (ADDS)

Output produced by METARs form (1829 UTC 19 August 2019)
found at http://www.aviationweather.gov/metar/data/
 
Forecast for: RKTN (TAEGU (US/KOR-AF, KR)
Text: TAF RKTN 191700Z 1918/2024 13008KT 9999 BKN030 TN23/1921Z TX32/2006Z
Forecast period: 1800 to 2000 UTC 19 August 2019
Forecast type: FROM: standard forecast or significant change
Winds: from the SE (130 degrees) at 9 MPH (8 knots; 4.1 m/s)
Visibility: 6 or more miles 10+ km)
Ceiling: 3000 feet AGL
Clouds: broken clouds at 3000 feet AGL
Weather: no significant weather forecast for this period
Text: BECMG 1920/1921 8000 BKN020
Forecast period: 2000 UTC 19 August 2019 to 0000 UTC 20 August 2019
Forecast type: BECOMING: Conditions expected to become as follows by 2100 UTC 19 August 2019
Winds: from the SE (130 degrees) at 9 MPH (8 knots; 4.1 m/s)
Visibility: 5 miles (8 km)
Ceiling: 2000 feet AGL
Clouds: broken clouds at 2000 feet AGL
Weather: no significant weather forecast for this period
Text: BECMG 2000/2001 9999 SCT040
Forecast period: 0000 UTC 20 August 2019 to 0000 UTC 21 August 2019
Forecast type: BECOMING: Conditions expected to become as follows by 0100 UTC 20 August 2019
Winds: from the SE (130 degrees) at 9 MPH (8 knots; 4.1 m/s)
Visibility: 6 or more miles 10+ km)
Ceiling: at least 12,000 feet AGL
Clouds: scattered clouds at 4000 feet AGL
Weather: no significant weather forecast for this period